createdAt,value
2022-07-25T00:01:44.358Z,3.25
2022-07-25T00:04:12.749Z,3.70
2022-07-25T00:06:41.698Z,3.92
2022-07-25T00:09:08.619Z,4.05
2022-07-25T00:11:35.416Z,4.18
2022-07-25T00:14:02.313Z,4.07
2022-07-25T00:16:29.206Z,4.10
2022-07-25T00:18:55.993Z,4.05
2022-07-25T00:21:22.753Z,3.35
2022-07-25T00:23:49.762Z,3.35
2022-07-25T00:26:17.118Z,3.70
2022-07-25T00:28:44.333Z,3.40
2022-07-25T00:31:11.163Z,2.83
2022-07-25T00:33:38.048Z,3.88
2022-07-25T00:36:05.151Z,3.75
2022-07-25T00:38:31.829Z,3.13
2022-07-25T00:40:58.517Z,4.15
2022-07-25T00:43:25.306Z,3.70
2022-07-25T00:45:52.011Z,4.40
2022-07-25T00:48:18.738Z,4.20
2022-07-25T00:50:46.769Z,4.03
2022-07-25T00:53:13.443Z,4.03
2022-07-25T00:55:40.562Z,4.32
2022-07-25T00:58:07.272Z,4.20
2022-07-25T01:00:34.033Z,4.25
2022-07-25T01:03:01.056Z,3.95
2022-07-25T01:05:27.877Z,2.72
2022-07-25T01:07:54.631Z,4.25
2022-07-25T01:10:21.318Z,5.15
2022-07-25T01:12:49.664Z,3.17
2022-07-25T01:15:20.173Z,3.95
2022-07-25T01:17:46.999Z,3.95
2022-07-25T01:20:20.731Z,3.60
2022-07-25T01:22:47.457Z,3.92
2022-07-25T01:25:14.721Z,4.38
2022-07-25T01:27:42.679Z,3.65
2022-07-25T01:30:11.141Z,4.32
2022-07-25T01:32:38.022Z,4.45
2022-07-25T01:35:05.898Z,3.78
2022-07-25T01:37:32.611Z,4.25
2022-07-25T01:39:59.505Z,4.20
2022-07-25T01:42:26.313Z,4.50
2022-07-25T01:44:53.079Z,4.82
2022-07-25T01:47:19.907Z,4.63
2022-07-25T01:49:46.790Z,4.72
2022-07-25T01:52:13.671Z,5.90
2022-07-25T01:54:41.109Z,5.60
2022-07-25T01:57:10.141Z,5.00
2022-07-25T01:59:39.580Z,4.63
2022-07-25T02:02:07.349Z,4.90
2022-07-25T02:04:34.745Z,4.30
2022-07-25T02:07:01.725Z,4.47
2022-07-25T02:09:28.456Z,4.63
2022-07-25T02:11:55.227Z,5.38
2022-07-25T02:14:22.880Z,4.38
2022-07-25T02:16:50.430Z,4.15
2022-07-25T02:19:17.218Z,3.63
2022-07-25T02:21:44.021Z,4.10
2022-07-25T02:24:11.006Z,4.10
2022-07-25T02:26:37.702Z,4.22
2022-07-25T02:29:04.450Z,3.13
2022-07-25T02:31:31.205Z,4.15
2022-07-25T02:33:58.445Z,4.15
2022-07-25T02:36:25.254Z,4.05
2022-07-25T02:38:52.062Z,3.47
2022-07-25T02:41:18.782Z,3.78
2022-07-25T02:43:45.481Z,4.78
2022-07-25T02:46:12.246Z,4.95
2022-07-25T02:48:39.129Z,4.45
2022-07-25T02:51:05.973Z,5.47
2022-07-25T02:53:55.991Z,5.25
2022-07-25T02:56:19.353Z,4.50
2022-07-25T02:58:48.083Z,5.40
2022-07-25T03:01:14.972Z,4.97
2022-07-25T03:03:41.857Z,5.25
2022-07-25T03:06:08.661Z,5.70
2022-07-25T03:08:35.385Z,6.03
2022-07-25T03:11:02.085Z,5.47
2022-07-25T03:13:28.786Z,6.18
2022-07-25T03:15:55.969Z,6.57
2022-07-25T03:18:22.668Z,5.07
2022-07-25T03:20:49.559Z,7.47
2022-07-25T03:23:16.248Z,6.47
2022-07-25T03:25:42.993Z,4.70
2022-07-25T03:28:09.745Z,4.82
2022-07-25T03:30:36.513Z,5.82
2022-07-25T03:33:03.230Z,4.90
2022-07-25T03:35:29.955Z,6.63
2022-07-25T03:37:56.723Z,6.18
2022-07-25T03:40:23.450Z,4.88
2022-07-25T03:42:50.158Z,6.50
2022-07-25T03:45:17.965Z,6.00
2022-07-25T03:47:44.980Z,7.32
2022-07-25T03:50:12.113Z,6.75
2022-07-25T03:52:38.834Z,6.43
2022-07-25T03:55:09.717Z,7.60
2022-07-25T03:57:36.477Z,6.95
2022-07-25T04:00:05.119Z,8.18
2022-07-25T04:02:31.949Z,6.47
2022-07-25T04:04:58.689Z,6.78
2022-07-25T04:07:25.441Z,6.55
2022-07-25T04:09:52.158Z,5.72
2022-07-25T04:12:18.877Z,6.57
2022-07-25T04:14:45.801Z,5.45
2022-07-25T04:17:12.577Z,5.90
2022-07-25T04:19:39.797Z,6.82
2022-07-25T04:22:06.669Z,6.05
2022-07-25T04:24:33.449Z,5.75
2022-07-25T04:27:00.147Z,4.95
2022-07-25T04:29:26.887Z,5.22
2022-07-25T04:31:53.737Z,6.20
2022-07-25T04:34:20.754Z,6.07
2022-07-25T04:36:47.541Z,5.75
2022-07-25T04:39:14.244Z,5.32
2022-07-25T04:41:41.376Z,5.13
2022-07-25T04:44:08.944Z,6.65
2022-07-25T04:46:36.151Z,5.15
2022-07-25T04:49:03.105Z,5.80
2022-07-25T04:51:29.968Z,7.40
2022-07-25T04:53:56.690Z,7.15
2022-07-25T04:56:23.392Z,6.32
2022-07-25T04:58:50.104Z,6.18
2022-07-25T05:01:16.922Z,7.13
2022-07-25T05:03:49.772Z,6.63
2022-07-25T05:06:18.608Z,8.68
2022-07-25T05:08:45.426Z,6.53
2022-07-25T05:11:12.194Z,8.13
2022-07-25T05:13:38.901Z,10.00
2022-07-25T05:16:06.114Z,14.35
2022-07-25T05:18:34.489Z,8.27
2022-07-25T05:21:01.332Z,7.10
2022-07-25T05:23:28.130Z,7.97
2022-07-25T05:25:54.853Z,7.35
2022-07-25T05:28:21.574Z,8.20
2022-07-25T05:30:48.300Z,8.57
2022-07-25T05:33:15.073Z,9.10
2022-07-25T05:35:41.885Z,10.45
2022-07-25T05:38:08.706Z,8.65
2022-07-25T05:40:35.505Z,9.30
2022-07-25T05:43:03.549Z,8.32
2022-07-25T05:45:30.992Z,12.57
2022-07-25T05:47:57.759Z,7.90
2022-07-25T05:50:24.743Z,9.73
2022-07-25T05:52:51.765Z,8.43
2022-07-25T05:55:18.513Z,9.90
2022-07-25T05:57:45.313Z,9.27
2022-07-25T06:00:12.569Z,8.82
2022-07-25T06:02:39.456Z,10.38
2022-07-25T06:05:06.606Z,7.55
2022-07-25T06:07:33.363Z,9.60
2022-07-25T06:10:00.127Z,9.00
2022-07-25T06:12:27.001Z,10.63
2022-07-25T06:14:54.045Z,10.13
2022-07-25T06:17:20.876Z,9.13
2022-07-25T06:19:47.585Z,9.15
2022-07-25T06:22:14.656Z,9.32
2022-07-25T06:24:41.556Z,7.82
2022-07-25T06:27:08.767Z,7.10
2022-07-25T06:29:35.643Z,9.90
2022-07-25T06:32:02.481Z,9.18
2022-07-25T06:34:29.441Z,8.43
2022-07-25T06:36:57.663Z,9.43
2022-07-25T06:39:25.465Z,7.80
2022-07-25T06:41:52.269Z,9.38
2022-07-25T06:44:18.972Z,8.98
2022-07-25T06:46:45.738Z,11.02
2022-07-25T06:49:12.596Z,9.65
2022-07-25T06:51:39.321Z,9.15
2022-07-25T06:54:06.376Z,9.35
2022-07-25T06:56:33.375Z,9.70
2022-07-25T06:59:00.628Z,7.65
2022-07-25T07:01:27.701Z,7.75
2022-07-25T07:03:54.805Z,8.77
2022-07-25T07:06:21.579Z,8.50
2022-07-25T07:08:48.338Z,7.57
2022-07-25T07:11:16.787Z,7.13
2022-07-25T07:13:43.577Z,5.32
2022-07-25T07:16:10.911Z,6.40
2022-07-25T07:18:38.255Z,7.95
2022-07-25T07:21:05.665Z,7.07
2022-07-25T07:23:32.934Z,7.10
2022-07-25T07:26:00.143Z,6.72
2022-07-25T07:28:27.243Z,7.50
2022-07-25T07:33:40.793Z,8.30
2022-07-25T07:36:07.808Z,8.18
2022-07-25T07:38:34.699Z,7.00
2022-07-25T07:41:01.409Z,7.82
2022-07-25T07:43:31.768Z,8.18
2022-07-25T07:46:02.206Z,9.35
2022-07-25T07:48:30.241Z,8.52
2022-07-25T07:50:57.495Z,8.30
2022-07-25T07:53:44.149Z,8.30
2022-07-25T07:56:12.233Z,7.25
2022-07-25T07:58:39.075Z,7.75
2022-07-25T08:01:06.602Z,9.00
2022-07-25T08:03:33.468Z,7.05
2022-07-25T08:06:00.215Z,7.97
2022-07-25T08:08:31.189Z,8.40
2022-07-25T08:10:59.421Z,7.63
2022-07-25T08:13:29.065Z,7.03
2022-07-25T08:15:58.765Z,7.35
2022-07-25T08:18:26.739Z,7.15
2022-07-25T08:20:53.563Z,7.95
2022-07-25T08:23:20.313Z,7.53
2022-07-25T08:25:47.172Z,8.05
2022-07-25T08:28:14.261Z,8.98
2022-07-25T08:30:42.155Z,7.28
2022-07-25T08:33:10.969Z,8.02
2022-07-25T08:35:37.850Z,8.32
2022-07-25T08:38:04.972Z,8.75
2022-07-25T08:40:32.772Z,7.68
2022-07-25T08:42:59.817Z,8.45
2022-07-25T08:45:28.660Z,7.40
2022-07-25T08:47:56.443Z,7.75
2022-07-25T08:50:28.870Z,8.20
2022-07-25T08:53:16.257Z,9.00
2022-07-25T08:55:45.207Z,9.38
2022-07-25T08:58:14.234Z,9.93
2022-07-25T09:00:41.964Z,9.30
2022-07-25T09:03:09.065Z,7.72
2022-07-25T09:05:37.112Z,8.40
2022-07-25T09:08:17.423Z,7.50
2022-07-25T09:10:49.214Z,7.63
2022-07-25T09:13:16.700Z,8.63
2022-07-25T09:15:47.635Z,8.07
2022-07-25T09:18:19.304Z,8.20
2022-07-25T09:20:50.289Z,6.93
2022-07-25T09:23:39.404Z,8.50
2022-07-25T09:26:13.533Z,7.55
2022-07-25T09:28:41.359Z,7.90
2022-07-25T09:31:09.821Z,8.98
2022-07-25T09:33:46.705Z,8.93
2022-07-25T09:36:13.616Z,9.60
2022-07-25T09:38:40.416Z,9.55
2022-07-25T09:41:07.809Z,9.25
2022-07-25T09:43:44.630Z,8.75
2022-07-25T09:46:12.153Z,8.27
2022-07-25T09:48:40.743Z,8.50
2022-07-25T09:51:07.822Z,8.60
2022-07-25T09:53:34.910Z,7.85
2022-07-25T09:56:01.781Z,8.13
2022-07-25T09:58:29.447Z,8.52
2022-07-25T10:01:02.985Z,9.27
2022-07-25T10:03:45.769Z,7.85
2022-07-25T10:06:21.442Z,9.18
2022-07-25T10:08:49.357Z,8.25
2022-07-25T10:11:24.587Z,8.27
2022-07-25T10:13:52.205Z,7.80
2022-07-25T10:16:28.128Z,9.40
2022-07-25T10:18:57.447Z,8.90
2022-07-25T10:21:28.248Z,8.43
2022-07-25T10:24:07.257Z,8.88
2022-07-25T10:26:40.013Z,9.55
2022-07-25T10:29:11.938Z,9.55
2022-07-25T10:31:49.441Z,9.68
2022-07-25T10:34:17.192Z,7.93
2022-07-25T10:36:47.805Z,7.97
2022-07-25T10:39:16.672Z,9.00
2022-07-25T10:41:54.309Z,7.55
2022-07-25T10:44:21.239Z,7.03
2022-07-25T10:46:49.229Z,7.82
2022-07-25T10:49:19.329Z,7.68
2022-07-25T10:52:03.289Z,7.20
2022-07-25T10:54:35.831Z,7.40
2022-07-25T10:57:04.355Z,8.95
2022-07-25T10:59:36.185Z,7.50
2022-07-25T11:02:05.246Z,7.28
2022-07-25T11:04:32.617Z,9.68
2022-07-25T11:07:11.741Z,8.43
2022-07-25T11:09:39.041Z,9.77
2022-07-25T11:12:06.181Z,8.98
2022-07-25T11:14:43.724Z,9.30
2022-07-25T11:17:15.251Z,8.80
2022-07-25T11:19:43.985Z,8.93
2022-07-25T11:22:11.438Z,8.95
2022-07-25T11:24:41.370Z,9.38
2022-07-25T11:27:12.411Z,8.68
2022-07-25T11:29:40.201Z,9.63
2022-07-25T11:32:09.717Z,8.60
2022-07-25T11:34:42.354Z,8.20
2022-07-25T11:37:10.957Z,8.88
2022-07-25T11:39:39.939Z,10.10
2022-07-25T11:42:08.718Z,9.95
2022-07-25T11:44:44.268Z,9.65
2022-07-25T11:47:33.060Z,10.82
2022-07-25T11:50:01.902Z,9.77
2022-07-25T11:52:31.009Z,11.43
2022-07-25T11:55:00.867Z,12.75
2022-07-25T11:57:29.681Z,10.30
2022-07-25T12:02:31.374Z,9.88
2022-07-25T12:05:00.969Z,9.48
2022-07-25T12:07:39.941Z,10.57
2022-07-25T12:10:11.662Z,10.15
2022-07-25T12:12:51.858Z,11.23
2022-07-25T12:15:21.812Z,9.85
2022-07-25T12:17:49.747Z,9.68
2022-07-25T12:20:19.610Z,8.57
2022-07-25T12:22:46.897Z,8.38
2022-07-25T12:25:13.720Z,7.28
2022-07-25T12:27:40.987Z,10.25
2022-07-25T12:30:09.319Z,9.02
2022-07-25T12:32:36.506Z,9.48
2022-07-25T12:35:05.031Z,7.32
2022-07-25T12:37:31.847Z,9.23
2022-07-25T12:39:58.658Z,7.68
2022-07-25T12:42:25.711Z,9.02
2022-07-25T12:44:52.409Z,8.93
2022-07-25T12:47:19.235Z,6.93
2022-07-25T12:49:47.453Z,9.05
2022-07-25T12:52:14.358Z,8.07
2022-07-25T12:54:41.162Z,7.43
2022-07-25T12:57:08.501Z,7.68
2022-07-25T12:59:35.284Z,6.65
2022-07-25T13:02:02.110Z,8.00
2022-07-25T13:04:29.110Z,7.13
2022-07-25T13:06:56.456Z,7.22
2022-07-25T13:09:24.278Z,9.48
2022-07-25T13:11:53.125Z,6.68
2022-07-25T13:14:20.093Z,8.20
2022-07-25T13:16:47.861Z,7.88
2022-07-25T13:19:15.580Z,8.93
2022-07-25T13:21:43.390Z,8.43
2022-07-25T13:24:11.189Z,8.93
2022-07-25T13:26:38.668Z,8.93
2022-07-25T13:29:08.974Z,7.25
2022-07-25T13:31:36.902Z,9.18
2022-07-25T13:34:03.663Z,8.57
2022-07-25T13:36:30.384Z,9.30
2022-07-25T13:38:57.062Z,9.50
2022-07-25T13:41:23.826Z,8.20
2022-07-25T13:43:50.745Z,8.68
2022-07-25T13:46:17.882Z,7.38
2022-07-25T13:48:44.708Z,7.03
2022-07-25T13:51:11.745Z,7.30
2022-07-25T13:53:38.680Z,7.40
2022-07-25T13:56:05.501Z,8.90
2022-07-25T13:58:32.293Z,8.50
2022-07-25T14:00:59.131Z,7.25
2022-07-25T14:03:26.035Z,9.18
2022-07-25T14:05:52.776Z,8.40
2022-07-25T14:08:19.614Z,8.20
2022-07-25T14:10:46.380Z,7.13
2022-07-25T14:13:13.315Z,7.82
2022-07-25T14:15:40.010Z,7.40
2022-07-25T14:18:06.710Z,7.40
2022-07-25T14:20:33.523Z,9.20
2022-07-25T14:23:00.277Z,8.60
2022-07-25T14:25:26.993Z,9.00
2022-07-25T14:27:53.741Z,6.93
2022-07-25T14:30:20.489Z,8.43
2022-07-25T14:32:47.274Z,7.05
2022-07-25T14:35:14.147Z,7.28
2022-07-25T14:37:41.152Z,8.15
2022-07-25T14:40:11.077Z,8.18
2022-07-25T14:42:38.514Z,7.72
2022-07-25T14:45:05.931Z,8.55
2022-07-25T14:47:32.738Z,8.57
2022-07-25T14:49:59.474Z,8.40
2022-07-25T14:52:26.157Z,7.80
2022-07-25T14:54:52.997Z,8.35
2022-07-25T14:57:19.830Z,8.40
2022-07-25T14:59:46.556Z,8.85
2022-07-25T15:02:13.285Z,7.75
2022-07-25T15:04:40.083Z,7.35
2022-07-25T15:07:07.231Z,8.40
2022-07-25T15:09:34.010Z,7.57
2022-07-25T15:12:00.851Z,7.75
2022-07-25T15:14:27.577Z,7.53
2022-07-25T15:16:54.339Z,9.35
2022-07-25T15:19:21.174Z,9.02
2022-07-25T15:21:48.015Z,10.05
2022-07-25T15:24:14.724Z,8.43
2022-07-25T15:26:41.565Z,8.45
2022-07-25T15:29:10.444Z,6.25
2022-07-25T15:31:37.788Z,9.05
2022-07-25T15:34:04.678Z,7.60
2022-07-25T15:36:31.546Z,8.63
2022-07-25T15:38:58.286Z,8.88
2022-07-25T15:41:25.054Z,9.13
2022-07-25T15:43:51.813Z,8.20
2022-07-25T15:46:18.545Z,8.32
2022-07-25T15:48:45.601Z,7.57
2022-07-25T15:51:16.601Z,7.97
2022-07-25T15:53:43.318Z,9.20
2022-07-25T15:56:10.942Z,9.32
2022-07-25T15:58:37.737Z,8.63
2022-07-25T16:01:04.552Z,8.85
2022-07-25T16:03:31.340Z,9.25
2022-07-25T16:05:58.992Z,7.70
2022-07-25T16:08:25.727Z,9.05
2022-07-25T16:10:52.946Z,9.73
2022-07-25T16:13:19.749Z,8.30
2022-07-25T16:15:46.553Z,7.00
2022-07-25T16:18:13.360Z,8.77
2022-07-25T16:20:40.083Z,9.35
2022-07-25T16:23:06.813Z,7.70
2022-07-25T16:25:33.488Z,7.93
2022-07-25T16:28:00.347Z,9.90
2022-07-25T16:30:28.287Z,7.95
2022-07-25T16:32:55.579Z,11.80
2022-07-25T16:35:22.569Z,9.15
2022-07-25T16:37:49.313Z,8.40
2022-07-25T16:40:16.158Z,22.98
2022-07-25T16:42:43.365Z,9.52
2022-07-25T16:45:10.909Z,10.25
2022-07-25T16:47:39.639Z,8.65
2022-07-25T16:50:06.577Z,8.60
2022-07-25T16:52:33.317Z,7.55
2022-07-25T16:55:00.015Z,7.65
2022-07-25T16:57:26.709Z,8.43
2022-07-25T16:59:53.800Z,9.25
2022-07-25T17:02:24.835Z,8.70
2022-07-25T17:04:54.515Z,10.10
2022-07-25T17:07:21.269Z,9.85
2022-07-25T17:09:48.017Z,10.30
2022-07-25T17:12:14.887Z,7.72
2022-07-25T17:14:41.615Z,12.98
2022-07-25T17:17:08.727Z,11.27
2022-07-25T17:19:39.770Z,9.95
2022-07-25T17:22:07.313Z,10.93
2022-07-25T17:24:34.068Z,14.68
2022-07-25T17:27:01.738Z,10.15
2022-07-25T17:29:28.546Z,11.20
2022-07-25T17:31:55.268Z,10.15
2022-07-25T17:34:22.021Z,10.95
2022-07-25T17:36:51.409Z,9.82
2022-07-25T17:39:18.221Z,11.73
2022-07-25T17:41:44.938Z,9.20
2022-07-25T17:44:12.362Z,10.10
2022-07-25T17:46:39.372Z,8.88
2022-07-25T17:49:06.243Z,13.60
2022-07-25T17:51:33.048Z,11.00
2022-07-25T17:53:59.757Z,11.00
2022-07-25T17:56:26.457Z,10.32
2022-07-25T17:58:53.225Z,12.32
2022-07-25T18:01:19.996Z,10.88
2022-07-25T18:03:47.681Z,12.10
2022-07-25T18:06:14.916Z,10.57
2022-07-25T18:08:41.897Z,10.02
2022-07-25T18:11:08.752Z,12.75
2022-07-25T18:13:35.531Z,10.45
2022-07-25T18:16:02.617Z,12.82
2022-07-25T18:18:29.656Z,10.40
2022-07-25T18:20:56.380Z,12.68
2022-07-25T18:23:24.357Z,9.07
2022-07-25T18:25:52.147Z,11.50
2022-07-25T18:28:19.124Z,11.30
2022-07-25T18:30:45.895Z,9.02
2022-07-25T18:33:12.668Z,11.32
2022-07-25T18:35:39.854Z,11.45
2022-07-25T18:38:06.667Z,12.40
2022-07-25T18:40:33.409Z,8.18
2022-07-25T18:43:00.100Z,9.55
2022-07-25T18:45:30.796Z,8.95
2022-07-25T18:47:57.537Z,7.95
2022-07-25T18:50:24.310Z,7.05
2022-07-25T18:52:51.024Z,8.73
2022-07-25T18:55:17.796Z,8.57
2022-07-25T18:57:44.829Z,7.60
2022-07-25T19:00:12.064Z,7.95
2022-07-25T19:02:38.887Z,8.05
2022-07-25T19:05:06.564Z,7.13
2022-07-25T19:07:34.253Z,9.75
2022-07-25T19:10:01.749Z,8.25
2022-07-25T19:12:28.505Z,8.38
2022-07-25T19:14:55.707Z,8.20
2022-07-25T19:17:24.043Z,7.82
2022-07-25T19:19:51.788Z,8.13
2022-07-25T19:22:18.602Z,8.35
2022-07-25T19:24:45.409Z,7.70
2022-07-25T19:27:12.521Z,7.65
2022-07-25T19:29:41.177Z,7.40
2022-07-25T19:32:07.873Z,7.95
2022-07-25T19:34:34.552Z,6.43
2022-07-25T19:37:01.366Z,7.65
2022-07-25T19:39:28.109Z,7.65
2022-07-25T19:41:54.874Z,7.57
2022-07-25T19:44:21.792Z,7.15
2022-07-25T19:46:49.671Z,7.57
2022-07-25T19:49:16.572Z,8.35
2022-07-25T19:51:43.422Z,7.90
2022-07-25T19:54:10.930Z,9.80
2022-07-25T19:56:38.112Z,6.88
2022-07-25T19:59:05.072Z,9.02
2022-07-25T20:01:35.580Z,8.57
2022-07-25T20:04:05.017Z,8.48
2022-07-25T20:06:32.148Z,9.98
2022-07-25T20:08:58.966Z,10.13
2022-07-25T20:11:25.708Z,8.65
2022-07-25T20:13:53.386Z,7.60
2022-07-25T20:16:20.219Z,7.97
2022-07-25T20:18:47.027Z,10.15
2022-07-25T20:21:14.237Z,7.57
2022-07-25T20:23:40.985Z,7.65
2022-07-25T20:26:07.894Z,8.63
2022-07-25T20:28:35.334Z,8.60
2022-07-25T20:31:02.624Z,7.95
2022-07-25T20:33:29.530Z,9.70
2022-07-25T20:35:57.635Z,7.47
2022-07-25T20:38:34.723Z,7.10
2022-07-25T20:41:01.431Z,7.57
2022-07-25T20:43:28.798Z,7.97
2022-07-25T20:45:55.820Z,8.43
2022-07-25T20:48:23.094Z,7.93
2022-07-25T20:50:50.094Z,8.02
2022-07-25T20:53:16.927Z,7.80
2022-07-25T20:55:43.637Z,7.05
2022-07-25T20:58:10.326Z,6.88
2022-07-25T21:00:37.064Z,7.60
2022-07-25T21:03:04.095Z,7.85
2022-07-25T21:05:35.063Z,7.57
2022-07-25T21:08:01.976Z,6.65
2022-07-25T21:10:28.727Z,11.55
2022-07-25T21:12:56.850Z,11.68
2022-07-25T21:15:23.984Z,11.25
2022-07-25T21:17:50.812Z,11.68
2022-07-25T21:20:17.804Z,10.50
2022-07-25T21:22:45.151Z,12.43
2022-07-25T21:25:11.926Z,13.15
2022-07-25T21:27:39.419Z,13.48
2022-07-25T21:30:07.968Z,15.10
2022-07-25T21:32:34.753Z,13.73
2022-07-25T21:35:01.613Z,13.45
2022-07-25T21:37:28.415Z,15.35
2022-07-25T21:39:55.189Z,14.07
2022-07-25T21:42:21.886Z,14.57
2022-07-25T21:44:48.668Z,15.48
2022-07-25T21:47:15.387Z,14.93
2022-07-25T21:50:01.187Z,14.45
2022-07-25T21:52:31.321Z,12.48
2022-07-25T21:55:02.677Z,15.18
2022-07-25T21:57:29.419Z,13.23
2022-07-25T21:59:56.220Z,14.43
2022-07-25T22:02:23.579Z,14.02
2022-07-25T22:04:50.406Z,13.90
2022-07-25T22:07:17.157Z,14.65
2022-07-25T22:09:44.074Z,14.07
2022-07-25T22:12:10.838Z,11.77
2022-07-25T22:14:38.206Z,13.45
2022-07-25T22:17:05.862Z,12.85
2022-07-25T22:19:33.229Z,13.63
2022-07-25T22:22:00.077Z,12.77
2022-07-25T22:24:26.801Z,11.95
2022-07-25T22:26:53.589Z,13.10
2022-07-25T22:29:21.037Z,12.32
2022-07-25T22:31:47.849Z,12.68
2022-07-25T22:34:14.704Z,12.80
2022-07-25T22:36:41.381Z,13.77
2022-07-25T22:39:08.623Z,13.82
2022-07-25T22:41:35.634Z,13.95
2022-07-25T22:44:02.372Z,14.60
2022-07-25T22:46:30.220Z,15.05
2022-07-25T22:48:58.141Z,11.32
2022-07-25T22:51:25.235Z,12.85
2022-07-25T22:53:52.132Z,12.35
2022-07-25T22:56:19.032Z,13.73
2022-07-25T22:58:47.019Z,13.82
2022-07-25T23:01:16.610Z,13.27
2022-07-25T23:03:43.412Z,12.38
2022-07-25T23:06:10.541Z,12.48
2022-07-25T23:08:37.394Z,14.50
2022-07-25T23:11:06.157Z,11.57
2022-07-25T23:16:00.150Z,11.05
2022-07-25T23:18:27.017Z,11.13
2022-07-25T23:20:53.719Z,12.73
2022-07-25T23:23:20.444Z,11.65
2022-07-25T23:25:47.207Z,12.77
2022-07-25T23:28:13.906Z,13.88
2022-07-25T23:30:40.857Z,16.33
2022-07-25T23:33:08.405Z,21.27
2022-07-25T23:35:35.349Z,21.02
2022-07-25T23:38:02.358Z,17.60
2022-07-25T23:40:29.444Z,17.75
2022-07-25T23:42:56.282Z,14.95
2022-07-25T23:45:25.471Z,15.50
2022-07-25T23:47:55.527Z,14.00
2022-07-25T23:50:23.014Z,13.10
2022-07-25T23:52:50.017Z,13.88
2022-07-25T23:55:16.938Z,12.85
2022-07-25T23:57:43.812Z,12.35
